Time,TemperatureF,DewpointF,PressureIn,WindDirection,WindDirectionDegrees,WindSpeedMPH,WindSpeedGustMPH,Humidity,HourlyPrecipIn,Conditions,Clouds,dailyrainin,SoftwareType,DateUTC
2013-02-13 00:00:00,29.3,22.4,29.88,WNW,291,2.0,11.0,75,0.00,,---,0.00,VWS V13.01,2013-02-13 05:00:00,
2013-02-13 00:30:00,28.9,22.0,29.88,NW,304,12.0,17.0,75,0.00,,---,0.00,VWS V13.01,2013-02-13 05:30:00,
2013-02-13 01:00:00,28.8,22.2,29.88,NW,312,6.0,12.0,76,0.00,,---,0.00,VWS V13.01,2013-02-13 06:00:00,
2013-02-13 01:30:00,28.6,22.3,29.87,WNW,297,10.0,14.0,77,0.00,,---,0.00,VWS V13.01,2013-02-13 06:30:00,
2013-02-13 02:00:00,28.5,22.5,29.86,NW,311,5.0,14.0,78,0.00,,---,0.00,VWS V13.01,2013-02-13 07:00:00,
2013-02-13 02:30:00,28.4,22.7,29.87,NW,307,5.0,11.0,79,0.00,,---,0.00,VWS V13.01,2013-02-13 07:30:00,
2013-02-13 03:00:00,28.3,22.6,29.85,NW,312,3.0,12.0,79,0.00,,---,0.00,VWS V13.01,2013-02-13 08:00:00,
2013-02-13 03:30:00,28.2,22.5,29.84,NW,311,5.0,9.0,79,0.00,,---,0.00,VWS V13.01,2013-02-13 08:30:00,
2013-02-13 04:00:00,28.0,22.3,29.83,NW,311,3.0,10.0,79,0.00,,---,0.00,VWS V13.01,2013-02-13 09:00:00,
2013-02-13 04:30:00,28.0,22.3,29.84,NW,311,0.0,7.0,79,0.00,,---,0.00,VWS V13.01,2013-02-13 09:30:00,
2013-02-13 05:00:00,28.0,22.3,29.84,NW,313,2.0,5.0,79,0.00,,---,0.00,VWS V13.01,2013-02-13 10:00:00,
2013-02-13 05:30:00,28.0,22.3,29.84,NW,314,0.0,4.0,79,0.00,,---,0.00,VWS V13.01,2013-02-13 10:30:00,
2013-02-13 06:00:00,28.0,22.3,29.83,NW,307,1.0,5.0,79,0.00,,---,0.00,VWS V13.01,2013-02-13 11:00:00,
2013-02-13 06:30:00,28.0,22.6,29.83,NW,305,1.0,4.0,80,0.00,,---,0.00,VWS V13.01,2013-02-13 11:30:00,
2013-02-13 07:00:00,27.8,22.4,29.82,NW,304,0.0,4.0,80,0.00,,---,0.00,VWS V13.01,2013-02-13 12:00:00,
2013-02-13 07:30:00,27.7,22.4,29.81,WNW,300,0.0,4.0,80,0.00,,---,0.00,VWS V13.01,2013-02-13 12:30:00,
2013-02-13 08:00:00,27.7,22.4,29.80,WNW,302,0.0,4.0,80,0.00,,---,0.00,VWS V13.01,2013-02-13 13:00:00,
2013-02-13 08:30:00,27.9,22.5,29.80,WNW,302,0.0,2.0,80,0.00,,---,0.00,VWS V13.01,2013-02-13 13:30:00,
2013-02-13 09:00:00,28.1,22.4,29.80,WNW,301,0.0,5.0,79,0.00,,---,0.00,VWS V13.01,2013-02-13 14:00:00,
2013-02-13 09:30:00,28.4,22.7,29.79,SSE,148,0.0,6.0,79,0.00,,---,0.00,VWS V13.01,2013-02-13 14:30:00,
2013-02-13 10:00:00,28.7,22.7,29.78,WSW,244,4.0,6.0,78,0.00,,---,0.00,VWS V13.01,2013-02-13 15:00:00,
2013-02-13 10:30:00,28.9,22.6,29.77,SW,217,1.0,9.0,77,0.00,,---,0.00,VWS V13.01,2013-02-13 15:30:00,
2013-02-13 11:00:00,29.8,23.2,29.78,SSE,164,2.0,7.0,76,0.00,,---,0.00,VWS V13.01,2013-02-13 16:00:00,
2013-02-13 11:30:00,30.4,23.8,29.79,South,188,4.0,12.0,76,0.00,,---,0.00,VWS V13.01,2013-02-13 16:30:00,
2013-02-13 12:00:00,31.1,24.1,29.78,WSW,252,4.0,12.0,75,0.00,,---,0.00,VWS V13.01,2013-02-13 17:00:00,
2013-02-13 12:30:00,31.9,24.2,29.77,SW,231,2.0,12.0,73,0.00,,---,0.00,VWS V13.01,2013-02-13 17:30:00,
2013-02-13 13:00:00,33.2,24.8,29.75,WSW,242,9.0,13.0,71,0.00,,---,0.00,VWS V13.01,2013-02-13 18:00:00,
2013-02-13 13:30:00,34.5,25.0,29.73,SW,231,5.0,11.0,68,0.00,,---,0.00,VWS V13.01,2013-02-13 18:30:00,
2013-02-13 14:00:00,38.0,26.9,29.71,West,276,3.0,6.0,64,0.00,,---,0.00,VWS V13.01,2013-02-13 19:00:00,
2013-02-13 14:30:00,38.5,26.2,29.70,WNW,286,4.0,8.0,61,0.00,,---,0.00,VWS V13.01,2013-02-13 19:30:00,
2013-02-13 15:00:00,38.6,25.5,29.69,West,278,5.0,12.0,59,0.00,,---,0.00,VWS V13.01,2013-02-13 20:00:00,
2013-02-13 15:30:00,39.3,26.2,29.69,SW,215,5.0,13.0,59,0.00,,---,0.00,VWS V13.01,2013-02-13 20:30:00,
2013-02-13 16:00:00,39.4,25.9,29.69,SSW,205,2.0,14.0,58,0.00,,---,0.00,VWS V13.01,2013-02-13 21:00:00,
2013-02-13 16:30:00,41.1,26.6,29.69,WNW,293,0.0,9.0,56,0.00,,---,0.00,VWS V13.01,2013-02-13 21:30:00,
2013-02-13 17:00:00,40.2,25.8,29.69,NW,324,4.0,10.0,56,0.00,,---,0.00,VWS V13.01,2013-02-13 22:00:00,
2013-02-13 17:30:00,39.4,25.9,29.70,West,277,2.0,9.0,58,0.00,,---,0.00,VWS V13.01,2013-02-13 22:30:00,
2013-02-13 18:00:00,35.0,26.6,29.71,ESE,121,3.0,6.0,71,0.00,,---,0.00,VWS V13.01,2013-02-13 23:00:00,
2013-02-13 18:30:00,33.4,26.7,29.71,ESE,107,0.0,3.0,76,0.00,,---,0.00,VWS V13.01,2013-02-13 23:30:00,
2013-02-13 19:00:00,32.4,26.6,29.72,ESE,107,0.0,3.0,79,0.00,,---,0.00,VWS V13.01,2013-02-14 00:00:00,
2013-02-13 19:30:00,31.9,26.7,29.72,ESE,107,0.0,2.0,81,0.00,,---,0.00,VWS V13.01,2013-02-14 00:30:00,
2013-02-13 20:00:00,31.4,26.8,29.74,ESE,107,0.0,0.0,83,0.00,,---,0.00,VWS V13.01,2013-02-14 01:00:00,
2013-02-13 20:30:00,30.8,26.8,29.73,ESE,106,0.0,0.0,85,0.00,,---,0.00,VWS V13.01,2013-02-14 01:30:00,
2013-02-13 21:00:00,30.8,26.8,29.73,ESE,107,1.0,2.0,85,0.00,,---,0.00,VWS V13.01,2013-02-14 02:00:00,
2013-02-13 21:30:00,31.2,27.2,29.73,ESE,115,0.0,4.0,85,0.00,,---,0.00,VWS V13.01,2013-02-14 02:30:00,
2013-02-13 22:00:00,31.0,27.0,29.74,ESE,117,2.0,4.0,85,0.00,,---,0.00,VWS V13.01,2013-02-14 03:00:00,
2013-02-13 22:30:00,30.9,26.9,29.75,South,187,0.0,5.0,85,0.00,,---,0.00,VWS V13.01,2013-02-14 03:30:00,
2013-02-13 23:00:00,30.6,26.6,29.74,South,191,0.0,5.0,85,0.00,,---,0.00,VWS V13.01,2013-02-14 04:00:00,
2013-02-13 23:30:00,30.5,26.8,29.74,SSW,198,2.0,5.0,86,0.00,,---,0.00,VWS V13.01,2013-02-14 04:30:00,